createdAt,value
2018-03-24T00:00:51.032Z,6.72
2018-03-24T00:03:18.649Z,6.65
2018-03-24T00:05:46.113Z,6.57
2018-03-24T00:08:13.653Z,6.48
2018-03-24T00:10:41.139Z,6.40
2018-03-24T00:13:09.039Z,6.43
2018-03-24T00:15:36.461Z,6.33
2018-03-24T00:18:03.918Z,6.39
2018-03-24T00:20:31.550Z,6.38
2018-03-24T00:22:59.172Z,6.39
2018-03-24T00:25:26.679Z,6.37
2018-03-24T00:27:54.147Z,6.33
2018-03-24T00:30:21.616Z,6.23
2018-03-24T00:32:49.265Z,6.23
2018-03-24T00:35:16.747Z,6.25
2018-03-24T00:37:44.206Z,6.20
2018-03-24T00:40:11.677Z,6.19
2018-03-24T00:42:39.154Z,6.18
2018-03-24T00:45:06.615Z,6.10
2018-03-24T00:47:34.155Z,6.03
2018-03-24T00:50:01.600Z,6.04
2018-03-24T00:52:29.148Z,5.97
2018-03-24T00:54:56.584Z,5.92
2018-03-24T00:57:24.055Z,5.99
2018-03-24T00:59:51.487Z,5.93
2018-03-24T01:02:18.928Z,5.98
2018-03-24T01:04:46.485Z,5.95
2018-03-24T01:07:14.030Z,5.65
2018-03-24T01:09:41.499Z,5.78
2018-03-24T01:12:08.960Z,5.81
2018-03-24T01:14:36.442Z,5.81
2018-03-24T01:17:03.891Z,5.74
2018-03-24T01:19:31.968Z,5.78
2018-03-24T01:21:59.433Z,5.71
2018-03-24T01:24:26.910Z,5.64
2018-03-24T01:26:54.463Z,5.53
2018-03-24T01:29:22.183Z,5.48
2018-03-24T01:31:49.677Z,5.33
2018-03-24T01:34:17.250Z,5.17
2018-03-24T01:36:44.760Z,5.24
2018-03-24T01:39:12.513Z,5.25
2018-03-24T01:41:39.954Z,5.24
2018-03-24T01:44:07.416Z,5.31
2018-03-24T01:46:34.872Z,5.41
2018-03-24T01:49:02.350Z,5.33
2018-03-24T01:51:30.187Z,5.24
2018-03-24T01:53:57.719Z,5.30
2018-03-24T01:56:25.164Z,5.32
2018-03-24T01:58:52.629Z,5.28
2018-03-24T02:01:20.731Z,5.24
2018-03-24T02:03:48.264Z,5.17
2018-03-24T02:06:15.793Z,5.25
2018-03-24T02:08:43.266Z,5.23
2018-03-24T02:11:10.723Z,5.13
2018-03-24T02:13:38.197Z,5.10
2018-03-24T02:16:05.622Z,5.07
2018-03-24T02:18:33.091Z,5.13
2018-03-24T02:21:00.548Z,5.12
2018-03-24T02:23:28.445Z,5.02
2018-03-24T02:25:55.904Z,5.04
2018-03-24T02:28:23.344Z,5.05
2018-03-24T02:30:50.913Z,5.05
2018-03-24T02:33:18.692Z,4.93
2018-03-24T02:35:46.160Z,4.79
2018-03-24T02:38:13.681Z,4.90
2018-03-24T02:40:41.148Z,4.84
2018-03-24T02:43:08.598Z,4.74
2018-03-24T02:45:36.285Z,4.82
2018-03-24T02:48:03.750Z,4.76
2018-03-24T02:50:31.271Z,4.80
2018-03-24T02:53:00.765Z,4.73
2018-03-24T02:55:28.208Z,4.72
2018-03-24T02:57:55.717Z,4.71
2018-03-24T03:00:23.191Z,4.65
2018-03-24T03:02:50.652Z,4.57
2018-03-24T03:05:18.201Z,4.54
2018-03-24T03:07:45.638Z,4.56
2018-03-24T03:10:13.108Z,4.45
2018-03-24T03:12:40.533Z,4.40
2018-03-24T03:15:07.989Z,4.44
2018-03-24T03:17:35.447Z,4.40
2018-03-24T03:20:02.916Z,4.45
2018-03-24T03:22:30.384Z,4.27
2018-03-24T03:24:57.874Z,4.22
2018-03-24T03:27:25.347Z,4.29
2018-03-24T03:29:52.789Z,4.34
2018-03-24T03:32:20.250Z,4.32
2018-03-24T03:34:47.690Z,4.31
2018-03-24T03:37:15.159Z,4.31
2018-03-24T03:39:42.615Z,4.34
2018-03-24T03:42:10.054Z,4.29
2018-03-24T03:44:37.483Z,4.27
2018-03-24T03:47:04.999Z,4.28
2018-03-24T03:49:33.100Z,4.32
2018-03-24T03:52:00.597Z,4.32
2018-03-24T03:54:28.700Z,4.24
2018-03-24T03:56:56.170Z,4.12
2018-03-24T03:59:23.646Z,4.24
2018-03-24T04:01:51.084Z,4.29
2018-03-24T04:04:18.548Z,4.21
2018-03-24T04:06:45.978Z,4.13
2018-03-24T04:09:13.435Z,4.17
2018-03-24T04:11:40.996Z,4.16
2018-03-24T04:14:08.446Z,4.11
2018-03-24T04:16:36.652Z,4.01
2018-03-24T04:19:04.111Z,4.03
2018-03-24T04:21:31.556Z,4.04
2018-03-24T04:23:58.986Z,4.03
2018-03-24T04:26:26.494Z,3.91
2018-03-24T04:28:53.957Z,3.84
2018-03-24T04:31:21.418Z,3.89
2018-03-24T04:33:48.862Z,3.89
2018-03-24T04:36:16.400Z,3.93
2018-03-24T04:38:43.858Z,3.96
2018-03-24T04:41:11.317Z,3.98
2018-03-24T04:43:38.785Z,3.87
2018-03-24T04:46:06.244Z,3.88
2018-03-24T04:48:33.686Z,3.89
2018-03-24T04:51:01.143Z,3.85
2018-03-24T04:53:28.604Z,3.84
2018-03-24T04:55:56.050Z,3.78
2018-03-24T04:58:23.518Z,3.69
2018-03-24T05:00:51.074Z,3.68
2018-03-24T05:03:18.523Z,3.68
2018-03-24T05:05:45.988Z,3.71
2018-03-24T05:08:13.407Z,3.67
2018-03-24T05:10:41.348Z,3.69
2018-03-24T05:13:08.889Z,3.65
2018-03-24T05:15:36.538Z,3.66
2018-03-24T05:18:04.059Z,3.73
2018-03-24T05:20:31.644Z,3.75
2018-03-24T05:22:59.334Z,3.80
2018-03-24T05:25:26.774Z,3.80
2018-03-24T05:27:54.232Z,3.80
2018-03-24T05:30:22.414Z,3.81
2018-03-24T05:32:49.858Z,3.77
2018-03-24T05:35:18.136Z,3.78
2018-03-24T05:37:45.793Z,3.73
2018-03-24T05:40:13.365Z,3.70
2018-03-24T05:42:41.011Z,3.75
2018-03-24T05:45:08.508Z,3.83
2018-03-24T05:47:35.933Z,3.88
2018-03-24T05:50:03.476Z,3.91
2018-03-24T05:52:30.911Z,3.92
2018-03-24T05:54:58.376Z,5.26
2018-03-24T05:57:25.817Z,6.59
2018-03-24T05:59:53.284Z,7.53
2018-03-24T06:02:20.773Z,8.40
2018-03-24T06:04:48.233Z,9.12
2018-03-24T06:07:15.678Z,9.81
2018-03-24T06:09:43.198Z,10.31
2018-03-24T06:12:10.740Z,10.90
2018-03-24T06:14:38.200Z,11.37
2018-03-24T06:17:05.718Z,10.82
2018-03-24T06:19:33.168Z,10.35
2018-03-24T06:22:00.616Z,9.62
2018-03-24T06:24:29.110Z,10.63
2018-03-24T06:26:56.617Z,10.89
2018-03-24T06:29:24.107Z,11.05
2018-03-24T06:31:52.088Z,12.53
2018-03-24T06:34:19.526Z,13.21
2018-03-24T06:36:47.712Z,12.88
2018-03-24T06:39:15.249Z,12.75
2018-03-24T06:41:43.247Z,13.85
2018-03-24T06:44:10.672Z,13.80
2018-03-24T06:46:38.132Z,14.76
2018-03-24T06:49:05.594Z,16.23
2018-03-24T06:51:33.031Z,16.91
2018-03-24T06:54:00.501Z,17.76
2018-03-24T06:56:27.941Z,18.68
2018-03-24T06:58:55.418Z,19.22
2018-03-24T07:01:22.843Z,19.56
2018-03-24T07:03:50.386Z,19.43
2018-03-24T07:06:17.946Z,20.09
2018-03-24T07:08:45.708Z,20.03
2018-03-24T07:11:13.377Z,20.18
2018-03-24T07:13:40.851Z,19.73
2018-03-24T07:16:08.375Z,20.81
2018-03-24T07:18:35.954Z,21.46
2018-03-24T07:21:03.434Z,20.37
2018-03-24T07:23:30.873Z,21.59
2018-03-24T07:25:58.337Z,22.06
2018-03-24T07:28:25.787Z,22.40
2018-03-24T07:30:53.253Z,22.94
2018-03-24T07:33:20.701Z,23.05
2018-03-24T07:35:48.204Z,23.48
2018-03-24T07:38:15.684Z,22.43
2018-03-24T07:40:43.298Z,23.45
2018-03-24T07:43:10.786Z,22.74
2018-03-24T07:45:38.280Z,22.78
2018-03-24T07:48:06.476Z,23.41
2018-03-24T07:50:34.034Z,23.96
2018-03-24T07:53:01.582Z,23.23
2018-03-24T07:55:29.028Z,22.76
2018-03-24T07:57:56.561Z,22.04
2018-03-24T08:00:24.107Z,21.93
2018-03-24T08:02:51.701Z,21.81
2018-03-24T08:05:19.298Z,22.66
2018-03-24T08:07:46.752Z,22.67
2018-03-24T08:10:14.425Z,22.91
2018-03-24T08:12:41.992Z,23.17
2018-03-24T08:15:13.954Z,23.18
2018-03-24T08:17:41.411Z,23.58
2018-03-24T08:20:08.889Z,24.03
2018-03-24T08:22:37.209Z,25.20
2018-03-24T08:25:05.234Z,25.68
2018-03-24T08:27:32.683Z,24.38
2018-03-24T08:30:00.137Z,24.31
2018-03-24T08:32:27.591Z,24.53
2018-03-24T08:34:55.228Z,25.23
2018-03-24T08:37:23.635Z,25.03
2018-03-24T08:39:51.105Z,24.92
2018-03-24T08:42:18.555Z,26.24
2018-03-24T08:44:46.699Z,25.61
2018-03-24T08:47:14.136Z,26.53
2018-03-24T08:49:41.695Z,27.16
2018-03-24T08:52:09.251Z,25.07
2018-03-24T08:54:36.737Z,26.05
2018-03-24T08:57:04.213Z,26.36
2018-03-24T08:59:31.727Z,27.47
2018-03-24T09:01:59.852Z,27.43
2018-03-24T09:04:27.281Z,27.47
2018-03-24T09:06:54.758Z,25.38
2018-03-24T09:09:22.183Z,25.57
2018-03-24T09:11:49.632Z,24.41
2018-03-24T09:14:17.102Z,25.04
2018-03-24T09:16:44.549Z,26.03
2018-03-24T09:19:12.012Z,25.63
2018-03-24T09:21:39.461Z,26.44
2018-03-24T09:24:06.986Z,25.00
2018-03-24T09:26:34.435Z,24.18
2018-03-24T09:29:01.912Z,23.70
2018-03-24T09:31:29.345Z,23.01
2018-03-24T09:33:57.554Z,23.43
2018-03-24T09:36:25.940Z,23.84
2018-03-24T09:38:54.527Z,24.25
2018-03-24T09:41:22.798Z,24.78
2018-03-24T09:43:50.376Z,23.36
2018-03-24T09:46:17.953Z,23.68
2018-03-24T09:48:45.466Z,24.14
2018-03-24T09:51:12.969Z,24.56
2018-03-24T09:53:40.405Z,23.37
2018-03-24T09:56:07.853Z,23.39
2018-03-24T09:58:35.330Z,24.14
2018-03-24T10:01:02.784Z,23.48
2018-03-24T10:03:30.213Z,23.47
2018-03-24T10:05:57.690Z,23.05
2018-03-24T10:08:25.308Z,22.71
2018-03-24T10:10:52.828Z,23.58
2018-03-24T10:13:20.268Z,23.33
2018-03-24T10:15:47.715Z,23.82
2018-03-24T10:18:15.163Z,23.63
2018-03-24T10:20:58.289Z,24.45
2018-03-24T10:23:40.414Z,24.78
2018-03-24T10:26:07.881Z,24.09
2018-03-24T10:28:35.344Z,24.51
2018-03-24T10:31:02.864Z,23.60
2018-03-24T10:33:30.344Z,24.42
2018-03-24T10:35:57.829Z,25.72
2018-03-24T10:38:25.257Z,26.36
2018-03-24T10:40:52.967Z,25.21
2018-03-24T10:43:25.989Z,24.55
2018-03-24T10:45:53.560Z,25.23
2018-03-24T10:48:20.989Z,25.36
2018-03-24T10:50:48.480Z,24.89
2018-03-24T10:53:16.099Z,24.70
2018-03-24T10:55:44.564Z,26.26
2018-03-24T10:58:12.151Z,26.49
2018-03-24T11:00:40.064Z,26.09
2018-03-24T11:03:07.525Z,24.66
2018-03-24T11:05:34.966Z,23.76
2018-03-24T11:08:02.448Z,24.73
2018-03-24T11:10:29.931Z,25.04
2018-03-24T11:12:57.382Z,24.69
2018-03-24T11:15:25.560Z,26.05
2018-03-24T11:17:53.028Z,27.06
2018-03-24T11:20:20.501Z,26.49
2018-03-24T11:22:48.355Z,25.19
2018-03-24T11:25:15.949Z,25.62
2018-03-24T11:27:43.661Z,26.85
2018-03-24T11:30:11.453Z,26.46
2018-03-24T11:32:38.889Z,25.65
2018-03-24T11:35:07.804Z,25.72
2018-03-24T11:37:35.236Z,24.86
2018-03-24T11:40:03.042Z,24.80
2018-03-24T11:42:30.480Z,24.05
2018-03-24T11:44:58.667Z,23.92
2018-03-24T11:47:26.141Z,23.90
2018-03-24T11:49:54.159Z,24.06
2018-03-24T11:52:21.601Z,24.68
2018-03-24T11:54:49.509Z,24.86
2018-03-24T11:57:17.967Z,24.50
2018-03-24T11:59:45.426Z,24.18
2018-03-24T12:02:12.921Z,23.61
2018-03-24T12:04:40.452Z,23.10
2018-03-24T12:07:07.936Z,24.06
2018-03-24T12:09:35.391Z,24.81
2018-03-24T12:12:02.837Z,24.34
2018-03-24T12:14:30.304Z,25.04
2018-03-24T12:16:57.782Z,25.83
2018-03-24T12:19:25.225Z,25.10
2018-03-24T12:21:53.162Z,24.23
2018-03-24T12:24:21.038Z,24.94
2018-03-24T12:26:49.088Z,25.71
2018-03-24T12:29:16.525Z,26.37
2018-03-24T12:31:43.993Z,26.82
2018-03-24T12:34:11.504Z,26.29
2018-03-24T12:36:39.528Z,25.78
2018-03-24T12:39:06.965Z,25.37
2018-03-24T12:41:34.467Z,25.55
2018-03-24T12:44:02.004Z,24.26
2018-03-24T12:46:29.514Z,23.67
2018-03-24T12:48:57.117Z,23.57
2018-03-24T12:51:24.673Z,24.80
2018-03-24T12:53:52.105Z,25.31
2018-03-24T12:56:20.009Z,24.37
2018-03-24T12:58:47.481Z,24.11
2018-03-24T13:01:14.952Z,24.83
2018-03-24T13:03:42.790Z,24.76
2018-03-24T13:06:10.239Z,24.50
2018-03-24T13:08:38.004Z,23.67
2018-03-24T13:11:05.460Z,23.36
2018-03-24T13:13:32.923Z,22.97
2018-03-24T13:16:00.404Z,22.79
2018-03-24T13:18:27.885Z,22.83
2018-03-24T13:20:55.742Z,21.30
2018-03-24T13:23:23.227Z,21.46
2018-03-24T13:25:50.684Z,21.03
2018-03-24T13:28:18.209Z,20.89
2018-03-24T13:30:45.738Z,20.98
2018-03-24T13:33:13.204Z,20.70
2018-03-24T13:35:40.677Z,19.99
2018-03-24T13:38:08.136Z,19.37
2018-03-24T13:40:35.635Z,19.05
2018-03-24T13:43:03.089Z,19.16
2018-03-24T13:45:30.557Z,19.28
2018-03-24T13:47:58.007Z,18.83
2018-03-24T13:50:27.267Z,18.84
2018-03-24T13:52:54.705Z,18.80
2018-03-24T13:55:22.284Z,19.02
2018-03-24T13:57:49.771Z,18.96
2018-03-24T14:00:17.252Z,18.15
2018-03-24T14:02:44.778Z,18.63
2018-03-24T14:05:12.227Z,18.89
2018-03-24T14:07:39.709Z,19.38
2018-03-24T14:10:07.197Z,19.71
2018-03-24T14:12:34.668Z,19.15
2018-03-24T14:15:02.453Z,19.18
2018-03-24T14:17:30.193Z,19.09
2018-03-24T14:19:57.722Z,19.44
2018-03-24T14:22:25.645Z,19.78
2018-03-24T14:24:53.097Z,19.96
2018-03-24T14:27:20.637Z,20.04
2018-03-24T14:29:48.138Z,19.59
2018-03-24T14:32:15.700Z,19.27
2018-03-24T14:34:43.158Z,18.76
2018-03-24T14:37:10.626Z,18.76
2018-03-24T14:39:38.140Z,18.89
2018-03-24T14:42:06.611Z,19.50
2018-03-24T14:44:34.748Z,19.94
2018-03-24T14:47:02.275Z,20.13
2018-03-24T14:49:29.824Z,19.99
2018-03-24T14:51:57.664Z,19.64
2018-03-24T14:54:25.182Z,19.17
2018-03-24T14:56:53.387Z,19.12
2018-03-24T14:59:20.900Z,19.08
2018-03-24T15:01:48.360Z,18.23
2018-03-24T15:04:15.830Z,18.46
2018-03-24T15:06:44.205Z,18.32
2018-03-24T15:09:11.665Z,18.25
2018-03-24T15:11:40.012Z,18.17
2018-03-24T15:14:07.731Z,17.79
2018-03-24T15:16:35.354Z,17.40
2018-03-24T15:19:02.972Z,16.98
2018-03-24T15:21:31.300Z,16.63
2018-03-24T15:23:58.827Z,16.58
2018-03-24T15:26:26.309Z,16.41
2018-03-24T15:29:05.655Z,16.15
2018-03-24T15:31:49.216Z,16.42
2018-03-24T15:34:28.642Z,16.32
2018-03-24T15:36:56.104Z,16.58
2018-03-24T15:39:23.572Z,16.38
2018-03-24T15:41:51.437Z,16.32
2018-03-24T15:44:19.295Z,15.94
2018-03-24T15:46:46.808Z,15.53
2018-03-24T15:49:14.401Z,15.25
2018-03-24T15:51:42.067Z,15.33
2018-03-24T15:54:10.015Z,15.13
2018-03-24T15:56:38.028Z,15.22
2018-03-24T15:59:05.598Z,15.06
2018-03-24T16:01:33.747Z,14.81
2018-03-24T16:04:01.149Z,14.60
2018-03-24T16:06:28.651Z,14.52
2018-03-24T16:08:56.207Z,14.48
2018-03-24T16:11:23.753Z,14.49
2018-03-24T16:13:51.189Z,14.65
2018-03-24T16:16:19.017Z,14.57
2018-03-24T16:18:46.777Z,14.43
2018-03-24T16:21:14.395Z,14.27
2018-03-24T16:23:41.933Z,14.34
2018-03-24T16:26:10.137Z,14.39
2018-03-24T16:28:37.746Z,14.53
2018-03-24T16:31:09.173Z,14.44
2018-03-24T16:33:36.677Z,14.16
2018-03-24T16:36:04.555Z,14.38
2018-03-24T16:38:32.006Z,14.35
2018-03-24T16:40:59.678Z,14.32
2018-03-24T16:43:27.688Z,14.17
2018-03-24T16:45:55.550Z,13.99
2018-03-24T16:48:23.448Z,13.89
2018-03-24T16:50:51.379Z,13.65
2018-03-24T16:53:19.386Z,13.73
2018-03-24T16:55:47.206Z,13.80
2018-03-24T16:58:15.117Z,13.86
2018-03-24T17:00:43.147Z,14.00
2018-03-24T17:03:11.123Z,13.79
2018-03-24T17:05:38.858Z,13.69
2018-03-24T17:08:07.047Z,13.44
2018-03-24T17:10:35.363Z,13.36
2018-03-24T17:13:03.362Z,13.38
2018-03-24T17:15:31.314Z,13.22
2018-03-24T17:17:58.863Z,13.23
2018-03-24T17:20:26.495Z,13.28
2018-03-24T17:22:54.120Z,13.32
2018-03-24T17:25:22.048Z,13.24
2018-03-24T17:27:49.506Z,13.20
2018-03-24T17:30:17.478Z,13.06
2018-03-24T17:32:44.905Z,13.00
2018-03-24T17:35:12.354Z,13.01
2018-03-24T17:37:39.842Z,12.79
2018-03-24T17:40:07.455Z,12.77
2018-03-24T17:42:35.982Z,12.67
2018-03-24T17:45:04.107Z,12.57
2018-03-24T17:47:31.578Z,12.48
2018-03-24T17:49:59.484Z,12.41
2018-03-24T17:52:27.010Z,12.25
2018-03-24T17:54:54.516Z,11.98
2018-03-24T17:57:21.976Z,11.77
2018-03-24T17:59:49.933Z,11.47
2018-03-24T18:02:17.638Z,11.23
2018-03-24T18:04:45.174Z,11.30
2018-03-24T18:07:12.749Z,11.12
2018-03-24T18:09:40.286Z,11.22
2018-03-24T18:12:07.912Z,11.12
2018-03-24T18:14:36.097Z,11.11
2018-03-24T18:17:03.535Z,11.08
2018-03-24T18:19:31.779Z,11.14
2018-03-24T18:21:59.345Z,11.10
2018-03-24T18:24:27.061Z,11.05
2018-03-24T18:26:54.573Z,10.96
2018-03-24T18:29:22.079Z,11.02
2018-03-24T18:31:49.572Z,10.90
2018-03-24T18:34:17.198Z,10.90
2018-03-24T18:36:45.180Z,10.97
2018-03-24T18:39:12.722Z,10.94
2018-03-24T18:41:41.195Z,10.88
2018-03-24T18:44:08.654Z,10.86
2018-03-24T18:46:36.221Z,10.76
2018-03-24T18:49:03.738Z,10.77
2018-03-24T18:51:31.382Z,10.71
2018-03-24T18:54:00.639Z,10.64
2018-03-24T18:56:28.614Z,10.54
2018-03-24T18:58:56.141Z,10.52
2018-03-24T19:01:23.788Z,10.50
2018-03-24T19:03:51.254Z,10.44
2018-03-24T19:06:18.826Z,10.45
2018-03-24T19:08:46.293Z,10.49
2018-03-24T19:11:14.073Z,10.50
2018-03-24T19:13:41.536Z,10.46
2018-03-24T19:16:09.133Z,10.47
2018-03-24T19:18:36.764Z,10.49
2018-03-24T19:21:04.653Z,10.46
2018-03-24T19:23:32.330Z,10.42
2018-03-24T19:25:59.997Z,10.42
2018-03-24T19:28:27.615Z,10.33
2018-03-24T19:30:55.408Z,10.31
2018-03-24T19:33:22.880Z,10.38
2018-03-24T19:35:50.370Z,10.42
2018-03-24T19:38:17.881Z,10.45
2018-03-24T19:40:48.654Z,10.51
2018-03-24T19:43:16.102Z,10.40
2018-03-24T19:45:43.786Z,10.36
2018-03-24T19:48:11.273Z,10.26
2018-03-24T19:50:38.936Z,10.30
2018-03-24T19:53:06.963Z,10.27
2018-03-24T19:55:34.474Z,10.22
2018-03-24T19:58:01.948Z,10.31
2018-03-24T20:00:29.383Z,10.32
2018-03-24T20:02:56.869Z,10.26
2018-03-24T20:05:24.323Z,10.16
2018-03-24T20:07:51.784Z,10.16
2018-03-24T20:10:19.632Z,10.16
2018-03-24T20:12:47.178Z,10.10
2018-03-24T20:15:14.675Z,10.07
2018-03-24T20:17:42.118Z,9.98
2018-03-24T20:20:09.585Z,9.89
2018-03-24T20:22:37.111Z,9.88
2018-03-24T20:25:04.640Z,9.82
2018-03-24T20:27:32.148Z,9.69
2018-03-24T20:29:59.593Z,9.60
2018-03-24T20:32:27.047Z,9.65
2018-03-24T20:34:54.531Z,9.67
2018-03-24T20:37:22.390Z,9.67
2018-03-24T20:39:49.844Z,9.62
2018-03-24T20:42:17.308Z,9.60
2018-03-24T20:44:44.773Z,9.61
2018-03-24T20:47:12.233Z,9.59
2018-03-24T20:49:39.691Z,9.51
2018-03-24T20:52:07.219Z,9.41
2018-03-24T20:54:34.690Z,9.38
2018-03-24T20:57:02.151Z,9.41
2018-03-24T20:59:29.616Z,9.33
2018-03-24T21:01:57.089Z,9.22
2018-03-24T21:04:24.544Z,9.22
2018-03-24T21:06:51.994Z,9.08
2018-03-24T21:09:19.465Z,9.14
2018-03-24T21:11:47.599Z,9.04
2018-03-24T21:14:15.482Z,9.00
2018-03-24T21:16:43.502Z,9.02
2018-03-24T21:19:11.549Z,8.95
2018-03-24T21:21:39.086Z,8.85
2018-03-24T21:24:06.839Z,8.69
2018-03-24T21:26:34.305Z,8.63
2018-03-24T21:29:02.483Z,8.68
2018-03-24T21:31:29.992Z,8.70
2018-03-24T21:33:57.666Z,8.73
2018-03-24T21:36:25.642Z,8.67
2018-03-24T21:38:53.679Z,8.56
2018-03-24T21:41:21.483Z,8.60
2018-03-24T21:43:49.104Z,8.57
2018-03-24T21:46:16.673Z,8.50
2018-03-24T21:48:44.172Z,8.37
2018-03-24T21:51:11.616Z,8.41
2018-03-24T21:53:39.135Z,8.30
2018-03-24T21:56:06.571Z,8.30
2018-03-24T21:58:34.075Z,8.19
2018-03-24T22:01:01.501Z,7.98
2018-03-24T22:03:29.578Z,8.00
2018-03-24T22:05:57.060Z,7.73
2018-03-24T22:08:24.503Z,7.54
2018-03-24T22:10:52.014Z,7.67
2018-03-24T22:13:19.464Z,7.76
2018-03-24T22:15:46.924Z,7.85
2018-03-24T22:18:14.373Z,7.91
2018-03-24T22:20:41.834Z,7.84
2018-03-24T22:23:09.260Z,7.84
2018-03-24T22:25:36.725Z,7.77
2018-03-24T22:28:04.146Z,7.53
2018-03-24T22:30:32.215Z,7.43
2018-03-24T22:33:00.532Z,7.37
2018-03-24T22:35:28.014Z,7.47
2018-03-24T22:37:55.469Z,7.49
2018-03-24T22:40:22.945Z,7.43
2018-03-24T22:42:50.431Z,7.43
2018-03-24T22:45:17.911Z,7.38
2018-03-24T22:47:45.335Z,7.10
2018-03-24T22:50:12.781Z,7.15
2018-03-24T22:52:40.268Z,6.98
2018-03-24T22:55:07.858Z,7.20
2018-03-24T22:57:35.337Z,7.26
2018-03-24T23:00:02.761Z,7.23
2018-03-24T23:02:30.238Z,7.25
2018-03-24T23:04:57.744Z,7.16
2018-03-24T23:07:25.216Z,7.12
2018-03-24T23:09:52.647Z,7.16
2018-03-24T23:12:20.097Z,7.11
2018-03-24T23:14:47.579Z,7.04
2018-03-24T23:17:15.069Z,6.89
2018-03-24T23:19:42.519Z,6.99
2018-03-24T23:22:10.026Z,7.07
2018-03-24T23:24:37.486Z,6.98
2018-03-24T23:27:04.913Z,6.95
2018-03-24T23:29:32.378Z,6.89
2018-03-24T23:31:59.804Z,6.85
2018-03-24T23:34:27.416Z,6.89
2018-03-24T23:36:54.871Z,6.82
2018-03-24T23:39:22.523Z,6.81
2018-03-24T23:41:50.008Z,6.90
2018-03-24T23:44:17.478Z,6.75
2018-03-24T23:46:44.927Z,6.77
2018-03-24T23:49:12.440Z,6.77
2018-03-24T23:51:39.877Z,6.64
2018-03-24T23:54:07.747Z,6.65
2018-03-24T23:56:35.225Z,6.68
2018-03-24T23:59:02.664Z,6.52
